Time;durP1;ratioP1;P1;durP2;ratioP2;P2;SDS_P1;SDS_P2;PMS_P1;PMS_P2;Temp;Humidity;BMP_temperature;BMP_pressure;BME280_temperature;BME280_humidity;BME280_pressure;Samples;Min_cycle;Max_cycle;Signal;HPM_P1;HPM_P2
2022/11/06 00:00:41;;;;;;;13.43;5.77;;;;;;;11.70;67.25;101051.84;124722;1099;104276;-74
2022/11/06 00:03:12;;;;;;;12.03;5.60;;;;;;;11.71;67.41;101058.02;124712;1098;104245;-75
2022/11/06 00:08:37;;;;;;;14.67;6.60;;;;;;;11.69;67.31;101057.95;124738;1098;104362;-75
2022/11/06 00:11:13;;;;;;;14.80;5.87;;;;;;;11.69;67.38;101050.06;124748;1099;104360;-75
2022/11/06 00:13:46;;;;;;;16.63;6.30;;;;;;;11.67;67.37;101055.27;124444;1099;104256;-74
2022/11/06 00:16:17;;;;;;;14.13;5.50;;;;;;;11.67;67.25;101052.63;124632;1099;103592;-74
2022/11/06 00:18:49;;;;;;;15.57;5.93;;;;;;;11.66;67.12;101047.31;124752;1099;104163;-74
2022/11/06 00:21:22;;;;;;;14.30;5.90;;;;;;;11.66;67.40;101047.31;124822;1099;104156;-74
2022/11/06 00:23:54;;;;;;;13.27;5.57;;;;;;;11.65;67.13;101040.25;124796;1099;104197;-74
2022/11/06 00:26:28;;;;;;;15.60;6.07;;;;;;;11.65;67.40;101049.02;124857;1099;104290;-74
2022/11/06 00:29:00;;;;;;;11.07;5.40;;;;;;;11.65;67.22;101037.63;124785;1099;104166;-74
2022/11/06 00:31:34;;;;;;;13.63;5.60;;;;;;;11.63;67.49;101041.94;124711;1098;104207;-74
2022/11/06 00:34:06;;;;;;;11.77;5.30;;;;;;;11.63;67.33;101039.30;124743;1099;104162;-74
2022/11/06 00:36:37;;;;;;;13.80;5.70;;;;;;;11.63;67.34;101034.05;124726;1099;104273;-74
2022/11/06 00:39:09;;;;;;;12.90;5.40;;;;;;;11.62;67.24;101027.88;124699;1099;104244;-74
2022/11/06 00:41:40;;;;;;;15.50;5.70;;;;;;;11.62;67.30;101037.50;124769;1099;104006;-74
2022/11/06 00:44:12;;;;;;;14.10;5.63;;;;;;;11.61;67.36;101039.24;124758;1099;104169;-74
2022/11/06 00:46:43;;;;;;;12.20;5.03;;;;;;;11.62;67.34;101045.38;124728;1099;104197;-75
2022/11/06 00:49:14;;;;;;;12.13;5.40;;;;;;;11.62;67.37;101048.90;124749;1099;102825;-74
2022/11/06 00:51:46;;;;;;;12.93;5.50;;;;;;;11.63;67.47;101044.56;124702;1099;104275;-75
2022/11/06 00:54:17;;;;;;;12.43;5.30;;;;;;;11.62;67.28;101043.64;124470;1099;102838;-74
2022/11/06 00:56:48;;;;;;;12.10;5.00;;;;;;;11.63;67.37;101039.30;124787;1099;102090;-74
2022/11/06 00:59:19;;;;;;;13.93;5.23;;;;;;;11.62;67.26;101040.13;124747;1098;102569;-75
2022/11/06 01:01:50;;;;;;;13.53;5.57;;;;;;;11.61;67.56;101043.58;124811;1099;104191;-74
2022/11/06 01:04:24;;;;;;;13.40;5.27;;;;;;;11.61;67.59;101040.95;124750;1098;103204;-74
2022/11/06 01:06:56;;;;;;;12.83;5.73;;;;;;;11.61;67.23;101043.58;124725;1099;102890;-74
2022/11/06 01:09:28;;;;;;;13.57;5.70;;;;;;;11.59;67.42;101034.75;124516;1099;104276;-74
2022/11/06 01:12:00;;;;;;;10.87;5.33;;;;;;;11.58;67.27;101040.86;124832;1099;104271;-74
2022/11/06 01:14:31;;;;;;;11.80;5.37;;;;;;;11.57;67.42;101037.31;124919;1099;102838;-74
2022/11/06 01:17:03;;;;;;;13.13;5.10;;;;;;;11.54;67.16;101042.45;124969;1099;102873;-74
2022/11/06 01:19:34;;;;;;;10.30;5.23;;;;;;;11.53;67.54;101037.13;124979;1098;104188;-74
2022/11/06 01:22:05;;;;;;;9.07;4.90;;;;;;;11.52;67.19;101046.75;124866;1099;102870;-74
2022/11/06 01:24:36;;;;;;;11.17;5.43;;;;;;;11.49;67.11;101041.38;124857;1099;104187;-74
2022/11/06 01:27:07;;;;;;;13.43;6.43;;;;;;;11.44;67.32;101038.56;124830;1099;104264;-75
2022/11/06 01:29:39;;;;;;;12.27;5.60;;;;;;;11.42;67.36;101040.23;124796;1099;103360;-74
2022/11/06 01:32:10;;;;;;;13.40;5.90;;;;;;;11.40;67.11;101041.88;124786;1099;104172;-74
2022/11/06 01:34:41;;;;;;;16.87;5.97;;;;;;;11.37;67.08;101041.76;124690;1099;102825;-74
2022/11/06 01:37:12;;;;;;;12.20;5.67;;;;;;;11.36;67.20;101036.44;124423;1099;102838;-74
2022/11/06 01:39:43;;;;;;;11.83;5.80;;;;;;;11.32;67.11;101038.05;124720;1099;104245;-74
2022/11/06 01:42:15;;;;;;;14.07;6.27;;;;;;;11.30;67.44;101050.24;124771;1099;102826;-74
2022/11/06 01:45:33;;;;;;;14.07;6.20;;;;;;;11.26;67.12;101048.31;124761;1098;104175;-74
2022/11/06 01:48:05;;;;;;;12.67;5.60;;;;;;;11.22;67.64;101043.75;124813;1099;103340;-74
2022/11/06 01:50:36;;;;;;;12.10;6.03;;;;;;;11.20;67.30;101051.56;124759;1098;102995;-74
2022/11/06 01:53:08;;;;;;;16.10;6.53;;;;;;;11.20;67.50;101050.68;124711;1098;104256;-74
2022/11/06 01:55:45;;;;;;;15.45;6.60;;;;;;;11.20;67.28;101062.07;124733;1099;104162;-74
2022/11/06 01:58:19;;;;;;;16.63;6.40;;;;;;;11.21;67.69;101055.11;124730;1099;102812;-75
2022/11/06 02:00:51;;;;;;;16.17;6.53;;;;;;;11.19;67.16;101054.13;124752;1099;104160;-74
2022/11/06 02:03:22;;;;;;;13.93;6.00;;;;;;;11.15;67.55;101055.73;124663;1099;104320;-74
2022/11/06 02:05:55;;;;;;;12.43;6.40;;;;;;;11.13;67.70;101063.55;124782;1099;104232;-74
2022/11/06 02:08:27;;;;;;;16.57;7.03;;;;;;;11.12;67.49;101067.00;124712;1099;104272;-74
2022/11/06 02:10:58;;;;;;;15.33;6.87;;;;;;;11.10;67.73;101063.42;124666;1099;104194;-74
2022/11/06 02:13:37;;;;;;;15.43;6.30;;;;;;;11.10;67.60;101062.53;124742;1099;104245;-74
2022/11/06 02:16:16;;;;;;;15.37;6.83;;;;;;;11.07;67.51;101068.55;124728;1099;104198;-73
2022/11/06 02:19:08;;;;;;;14.93;6.97;;;;;;;11.05;67.47;101066.70;124382;1099;102934;-74
2022/11/06 02:22:03;;;;;;;17.15;7.20;;;;;;;11.03;67.57;101060.47;124785;1099;101938;-74
2022/11/06 02:24:56;;;;;;;15.50;6.92;;;;;;;11.02;67.56;101061.32;124600;1099;104198;-74
2022/11/06 02:27:29;;;;;;;17.73;7.33;;;;;;;11.00;67.43;101063.88;124704;1099;104236;-74
2022/11/06 02:30:05;;;;;;;17.67;6.80;;;;;;;11.00;67.55;101062.96;124709;1099;104188;-74
2022/11/06 02:32:40;;;;;;;15.20;6.90;;;;;;;10.98;67.35;101068.15;124739;1099;104233;-74
2022/11/06 02:35:20;;;;;;;17.90;7.50;;;;;;;10.96;67.77;101077.70;124652;1098;117987;-74
2022/11/06 02:37:56;;;;;;;15.73;7.33;;;;;;;10.94;67.76;101072.38;124709;1099;104220;-74
2022/11/06 02:40:32;;;;;;;13.87;6.63;;;;;;;10.94;67.48;101075.00;124735;1099;104271;-74
2022/11/06 02:43:07;;;;;;;14.33;6.23;;;;;;;10.94;67.35;101074.12;124697;1098;103498;-74
2022/11/06 02:45:43;;;;;;;17.97;6.70;;;;;;;10.94;67.74;101084.63;124758;1099;104198;-74
2022/11/06 02:48:18;;;;;;;15.03;7.00;;;;;;;10.91;67.49;101080.13;124768;1099;104644;-74
2022/11/06 02:50:54;;;;;;;14.17;6.43;;;;;;;10.92;67.38;101083.64;124569;1099;104157;-74
2022/11/06 02:53:27;;;;;;;16.80;7.00;;;;;;;10.90;67.62;101087.94;124558;1099;104280;-74
2022/11/06 02:56:05;;;;;;;15.17;6.57;;;;;;;10.87;67.53;101087.80;124845;1099;104688;-74
2022/11/06 02:58:40;;;;;;;15.50;6.50;;;;;;;10.84;67.37;101085.03;124335;1099;104281;-74
2022/11/06 03:01:17;;;;;;;15.97;6.73;;;;;;;10.83;67.27;101092.02;124666;1099;103352;-74
2022/11/06 03:03:54;;;;;;;15.13;6.87;;;;;;;10.83;67.06;101093.73;124666;1099;103085;-74
2022/11/06 03:06:33;;;;;;;16.27;6.57;;;;;;;10.82;67.08;101086.70;124806;1099;104168;-74
2022/11/06 03:09:07;;;;;;;15.50;7.27;;;;;;;10.79;67.01;101096.22;124406;1099;104181;-74
2022/11/06 03:11:38;;;;;;;;;;;;;;;10.75;66.44;101094.31;124764;1099;104172;-74
2022/11/06 03:14:15;;;;;;;16.10;6.60;;;;;;;10.71;66.43;101087.12;124717;1099;102461;-74
2022/11/06 03:16:53;;;;;;;15.37;6.83;;;;;;;10.70;66.73;101095.81;124679;1099;104236;-74
2022/11/06 03:19:30;;;;;;;16.87;7.40;;;;;;;10.68;66.62;101092.23;124766;1099;104239;-74
2022/11/06 03:22:07;;;;;;;14.67;6.60;;;;;;;10.68;66.75;101102.73;124526;1099;104166;-74
2022/11/06 03:24:46;;;;;;;15.40;6.77;;;;;;;10.69;66.77;101100.99;124733;1099;102845;-74
2022/11/06 03:27:23;;;;;;;15.57;6.83;;;;;;;10.69;66.51;101106.24;124722;1099;103221;-74
2022/11/06 03:30:01;;;;;;;16.73;7.07;;;;;;;10.67;66.50;101102.66;124839;1099;104162;-74
2022/11/06 03:32:37;;;;;;;18.13;7.17;;;;;;;10.65;66.53;101107.84;124396;1099;104335;-74
2022/11/06 03:35:15;;;;;;;14.17;6.67;;;;;;;10.64;66.09;101111.28;124715;1099;104262;-74
2022/11/06 03:37:52;;;;;;;14.80;6.67;;;;;;;10.63;66.37;101105.96;124778;1099;104195;-74
2022/11/06 03:40:26;;;;;;;14.80;6.53;;;;;;;10.60;66.08;101111.99;124759;1099;104165;-74
2022/11/06 03:43:01;;;;;;;14.43;6.07;;;;;;;10.59;65.94;101112.81;124696;1099;104201;-74
2022/11/06 03:45:33;;;;;;;14.90;6.63;;;;;;;10.57;65.92;101110.11;124761;1099;104226;-73
2022/11/06 03:48:11;;;;;;;14.63;6.30;;;;;;;10.59;66.46;101112.81;124733;1099;104200;-74
2022/11/06 03:50:48;;;;;;;13.83;6.43;;;;;;;10.57;65.65;101106.61;124741;1099;102941;-74
2022/11/06 03:53:25;;;;;;;15.73;6.43;;;;;;;10.54;65.82;101107.35;124775;1098;102953;-74
2022/11/06 03:55:59;;;;;;;14.43;6.33;;;;;;;10.55;66.35;101116.11;124556;1099;104064;-74
2022/11/06 03:58:36;;;;;;;13.70;6.20;;;;;;;10.53;66.11;101113.45;124757;1099;104188;-75
2022/11/06 04:01:12;;;;;;;13.73;6.10;;;;;;;10.49;65.79;101106.26;124705;1099;104166;-74
2022/11/06 04:03:49;;;;;;;15.43;6.23;;;;;;;10.51;65.62;101116.82;124784;1099;104297;-74
2022/11/06 04:06:25;;;;;;;15.57;6.50;;;;;;;10.50;65.59;101115.94;124774;1099;104235;-74
2022/11/06 04:14:41;;;;;;;13.47;6.17;;;;;;;10.44;65.31;101110.41;124679;1099;104191;-73
2022/11/06 04:17:15;;;;;;;13.80;6.20;;;;;;;10.42;65.25;101117.28;124747;1099;104169;-74
2022/11/06 04:19:50;;;;;;;12.18;5.78;;;;;;;10.40;65.49;101108.45;124735;1099;104161;-74
2022/11/06 04:22:34;;;;;;;15.50;5.83;;;;;;;10.39;65.64;101111.89;124245;1099;104157;-74
2022/11/06 04:28:19;;;;;;;10.97;5.63;;;;;;;10.33;65.39;101114.23;124780;1099;104770;-74
2022/11/06 04:30:58;;;;;;;13.35;6.05;;;;;;;10.30;64.91;101114.98;124743;1099;104280;-74
2022/11/06 04:33:37;;;;;;;13.70;5.53;;;;;;;10.30;64.72;101117.60;124754;1099;104633;-74
2022/11/06 04:36:17;;;;;;;12.53;5.93;;;;;;;10.31;65.49;101118.48;124688;1098;104173;-74
2022/11/06 04:39:01;;;;;;;12.03;5.73;;;;;;;10.30;65.14;101121.92;124299;1099;104232;-74
2022/11/06 04:41:38;;;;;;;12.97;6.10;;;;;;;10.28;65.17;101116.61;124698;1099;104249;-74
2022/11/06 04:44:14;;;;;;;14.87;6.57;;;;;;;10.25;64.59;101120.01;124751;1099;102819;-73
2022/11/06 04:46:49;;;;;;;13.37;6.43;;;;;;;10.21;64.85;101115.44;124700;1099;103124;-73
2022/11/06 04:49:22;;;;;;;13.60;6.53;;;;;;;10.19;64.91;101113.55;124697;1099;104227;-74
2022/11/06 04:51:54;;;;;;;12.37;5.93;;;;;;;10.17;64.82;101121.34;124747;1099;103308;-73
2022/11/06 04:54:25;;;;;;;14.03;7.03;;;;;;;10.15;64.37;101109.02;124701;1099;102251;-74
2022/11/06 04:57:00;;;;;;;14.77;6.43;;;;;;;10.16;64.47;101114.33;124829;1099;104184;-74
2022/11/06 04:59:34;;;;;;;15.37;6.10;;;;;;;10.13;64.33;101110.64;124713;1098;103197;-74
2022/11/06 05:02:06;;;;;;;11.48;5.55;;;;;;;10.11;64.28;101113.19;124721;1098;102861;-74
2022/11/06 05:04:37;;;;;;;13.27;6.33;;;;;;;10.12;64.42;101111.48;124760;1099;104262;-74
2022/11/06 05:07:08;;;;;;;12.30;5.70;;;;;;;10.14;64.38;101120.31;124711;1099;104169;-73
2022/11/06 05:09:40;;;;;;;12.50;5.87;;;;;;;10.13;64.44;101126.38;124710;1099;104236;-75
2022/11/06 05:12:11;;;;;;;12.90;6.00;;;;;;;10.10;64.89;101123.61;124309;1102;104166;-74
2022/11/06 05:14:42;;;;;;;14.57;6.27;;;;;;;10.08;64.75;101128.78;124709;1099;104331;-74
2022/11/06 05:17:13;;;;;;;13.77;5.93;;;;;;;10.07;64.65;101125.27;124719;1099;104242;-74
2022/11/06 05:19:44;;;;;;;15.43;6.57;;;;;;;10.03;64.02;101123.31;124717;1099;103172;-74
2022/11/06 05:25:05;;;;;;;12.90;6.33;;;;;;;10.03;64.19;101132.91;124791;1099;104352;-74
2022/11/06 05:27:36;;;;;;;12.83;6.23;;;;;;;10.02;64.12;101132.03;124732;1099;104239;-74
2022/11/06 05:30:09;;;;;;;14.40;6.77;;;;;;;10.02;64.51;101134.64;124710;1099;102866;-74
2022/11/06 05:32:41;;;;;;;15.10;6.08;;;;;;;10.03;64.56;101141.66;124558;1099;104265;-73
2022/11/06 05:35:12;;;;;;;15.37;7.13;;;;;;;10.03;64.53;101143.40;124687;1099;103382;-74
2022/11/06 05:37:43;;;;;;;15.53;7.40;;;;;;;10.03;64.32;101140.78;124698;1098;104195;-74
2022/11/06 05:40:14;;;;;;;15.60;6.80;;;;;;;10.04;64.24;101142.59;124365;1099;104896;-74
2022/11/06 05:42:46;;;;;;;15.07;6.47;;;;;;;10.07;64.25;101141.00;124733;1099;104208;-74
2022/11/06 05:45:17;;;;;;;16.60;7.63;;;;;;;10.08;64.37;101145.43;124286;1099;104201;-74
2022/11/06 05:47:48;;;;;;;14.90;6.83;;;;;;;10.10;64.83;101148.13;124755;1098;104162;-74
2022/11/06 05:50:19;;;;;;;15.37;7.27;;;;;;;10.11;64.24;101152.52;124765;1099;104254;-74
2022/11/06 05:52:51;;;;;;;14.27;7.27;;;;;;;10.13;64.62;101164.01;124605;1099;104210;-75
2022/11/06 05:55:22;;;;;;;17.20;7.67;;;;;;;10.15;64.63;101164.97;124687;1099;103283;-74
2022/11/06 05:57:53;;;;;;;17.73;7.53;;;;;;;10.16;64.70;101168.48;124527;1099;104221;-74
2022/11/06 06:00:24;;;;;;;16.03;7.17;;;;;;;10.17;64.34;101170.29;124472;1099;104233;-74
2022/11/06 06:02:55;;;;;;;17.40;7.53;;;;;;;10.17;64.25;101173.80;124718;1099;102870;-74
2022/11/06 06:05:26;;;;;;;17.93;7.53;;;;;;;10.20;64.65;101180.93;124679;1099;104349;-74
2022/11/06 06:07:57;;;;;;;15.37;7.43;;;;;;;10.22;64.48;101176.64;124771;1099;104174;-74
2022/11/06 06:10:28;;;;;;;16.67;8.17;;;;;;;10.25;64.79;101179.41;124660;1099;104332;-74
2022/11/06 06:13:00;;;;;;;15.50;7.83;;;;;;;10.26;64.48;101184.73;124767;1099;104277;-74
2022/11/06 06:15:31;;;;;;;19.40;7.93;;;;;;;10.25;65.03;101185.58;124776;1099;104217;-74
2022/11/06 06:18:02;;;;;;;15.80;7.63;;;;;;;10.27;64.75;101185.66;124668;1098;104064;-74
2022/11/06 06:20:33;;;;;;;16.77;8.00;;;;;;;10.28;64.71;101192.67;124531;1099;102183;-74
2022/11/06 06:23:05;;;;;;;14.80;7.87;;;;;;;10.27;64.97;101180.41;124686;1099;104176;-74
2022/11/06 06:25:36;;;;;;;16.57;7.93;;;;;;;10.28;64.95;101194.41;124747;1099;104207;-74
2022/11/06 06:28:07;;;;;;;17.50;8.10;;;;;;;10.26;64.85;101192.60;124708;1099;104337;-74
2022/11/06 06:30:41;;;;;;;16.57;7.97;;;;;;;10.30;65.31;101198.92;124696;1099;104255;-74
2022/11/06 06:33:12;;;;;;;17.57;7.95;;;;;;;10.33;64.95;101200.80;124790;1099;104172;-74
2022/11/06 06:35:43;;;;;;;16.60;7.83;;;;;;;10.38;64.94;101205.45;124728;1099;104270;-74
2022/11/06 06:38:14;;;;;;;18.10;8.53;;;;;;;10.43;65.27;101206.56;124743;1098;104373;-74
2022/11/06 06:40:48;;;;;;;17.47;9.07;;;;;;;10.47;65.33;101206.70;124781;1099;104835;-74
2022/11/06 06:43:19;;;;;;;13.10;7.30;;;;;;;10.48;65.08;101203.27;124686;1099;104217;-74
2022/11/06 06:45:50;;;;;;;18.53;8.63;;;;;;;10.47;65.22;101209.33;124724;1099;102867;-74
2022/11/06 06:48:21;;;;;;;18.73;8.67;;;;;;;10.49;64.87;101203.34;124716;1099;104172;-74
2022/11/06 06:50:52;;;;;;;19.17;9.47;;;;;;;10.53;65.59;101205.30;124766;1098;104213;-74
2022/11/06 06:53:23;;;;;;;16.83;8.90;;;;;;;10.56;65.41;101204.52;124781;1099;104213;-75
2022/11/06 06:55:57;;;;;;;18.20;9.13;;;;;;;10.59;65.52;101213.42;124765;1098;104163;-74
2022/11/06 06:58:28;;;;;;;17.17;8.90;;;;;;;10.64;64.94;101212.75;124694;1099;104740;-75
2022/11/06 07:01:03;;;;;;;18.93;8.90;;;;;;;10.66;65.51;101216.34;124559;1099;102841;-73
2022/11/06 07:03:34;;;;;;;19.57;9.10;;;;;;;10.69;65.33;101204.28;124727;1099;104710;-74
2022/11/06 07:06:06;;;;;;;21.97;9.77;;;;;;;10.70;65.61;101213.92;124748;1099;103072;-75
2022/11/06 07:08:38;;;;;;;19.77;8.97;;;;;;;10.69;65.43;101212.16;124725;1099;104061;-74
2022/11/06 07:11:11;;;;;;;19.23;9.80;;;;;;;10.70;65.49;101213.04;124755;1099;104166;-74
2022/11/06 07:13:42;;;;;;;20.00;10.53;;;;;;;10.77;65.73;101215.14;124689;1099;104344;-74
2022/11/06 07:16:13;;;;;;;19.73;9.47;;;;;;;10.79;65.31;101214.36;124766;1099;104178;-74
2022/11/06 07:18:44;;;;;;;22.97;10.73;;;;;;;10.77;65.46;101213.40;124760;1099;104274;-74
2022/11/06 07:21:15;;;;;;;21.13;9.93;;;;;;;10.79;65.64;101208.22;124723;1099;104303;-74
2022/11/06 07:23:47;;;;;;;21.07;9.20;;;;;;;10.84;65.51;101208.43;124785;1099;104144;-74
2022/11/06 07:26:18;;;;;;;19.60;9.30;;;;;;;10.89;65.83;101204.28;124715;1099;104178;-74
2022/11/06 07:28:49;;;;;;;20.20;9.37;;;;;;;10.94;65.69;101202.78;124733;1099;104245;-74
2022/11/06 07:31:20;;;;;;;22.17;10.30;;;;;;;10.99;65.70;101205.62;124299;1099;104291;-74
2022/11/06 07:33:51;;;;;;;20.67;10.17;;;;;;;11.03;65.41;101200.58;124704;1099;104060;-74
2022/11/06 07:36:22;;;;;;;22.77;10.00;;;;;;;11.13;66.03;101197.52;124738;1099;104685;-74
2022/11/06 07:38:53;;;;;;;22.57;10.43;;;;;;;11.20;66.13;101200.41;124738;1099;102867;-75
2022/11/06 07:41:25;;;;;;;21.40;9.20;;;;;;;11.27;65.57;101207.74;124780;1099;102866;-74
2022/11/06 07:43:56;;;;;;;20.67;9.47;;;;;;;11.33;66.13;101210.64;124736;1099;104336;-74
2022/11/06 07:46:27;;;;;;;22.17;10.63;;;;;;;11.33;66.10;101208.91;124712;1099;103315;-74
2022/11/06 07:48:58;;;;;;;22.40;10.43;;;;;;;11.40;65.83;101203.91;124775;1099;102236;-74
2022/11/06 07:51:29;;;;;;;19.10;9.50;;;;;;;11.44;65.99;101213.74;124229;1099;112029;-74
2022/11/06 07:54:00;;;;;;;20.77;10.43;;;;;;;11.45;65.48;101218.14;124739;1099;104195;-75
2022/11/06 07:56:32;;;;;;;20.60;10.10;;;;;;;11.49;66.02;101205.20;124763;1099;103078;-74
2022/11/06 07:59:03;;;;;;;21.97;10.77;;;;;;;11.51;66.02;101202.64;124744;1099;104338;-74
2022/11/06 08:01:34;;;;;;;23.33;11.10;;;;;;;11.54;65.89;101209.77;124725;1099;103097;-74
2022/11/06 08:04:05;;;;;;;24.70;11.10;;;;;;;11.59;66.04;101217.00;124462;1099;104255;-74
2022/11/06 08:06:36;;;;;;;22.63;11.13;;;;;;;11.60;65.84;101213.55;124819;1099;102803;-74
2022/11/06 08:09:08;;;;;;;22.40;10.40;;;;;;;11.63;66.06;101218.05;124748;1099;104253;-74
2022/11/06 08:11:40;;;;;;;20.00;10.53;;;;;;;11.61;66.07;101230.21;124694;1099;104673;-74
2022/11/06 08:14:11;;;;;;;23.23;11.37;;;;;;;11.54;66.15;101222.91;124712;1099;104306;-74
2022/11/06 08:16:42;;;;;;;25.57;11.60;;;;;;;11.50;65.90;101232.41;124818;1099;104337;-74
2022/11/06 08:19:13;;;;;;;25.90;11.53;;;;;;;11.46;66.33;101220.84;124778;1099;104290;-74
2022/11/06 08:21:44;;;;;;;24.50;11.90;;;;;;;11.46;66.26;101231.35;124450;1099;104264;-74
2022/11/06 08:24:16;;;;;;;21.67;11.50;;;;;;;11.44;66.43;101222.52;124703;1099;103200;-74
2022/11/06 08:26:47;;;;;;;26.37;12.70;;;;;;;11.46;65.75;101226.09;124772;1099;104176;-74
2022/11/06 08:29:18;;;;;;;25.80;12.00;;;;;;;11.43;66.26;101228.59;124594;1099;104204;-74
2022/11/06 08:31:49;;;;;;;24.57;11.30;;;;;;;11.41;66.09;101232.89;124552;1099;104201;-74
2022/11/06 08:34:20;;;;;;;22.33;11.60;;;;;;;11.33;66.46;101224.67;124793;1099;102851;-75
2022/11/06 08:36:52;;;;;;;26.43;12.73;;;;;;;11.31;66.46;101225.41;124788;1099;104328;-74
2022/11/06 08:39:24;;;;;;;22.90;11.27;;;;;;;11.33;66.60;101224.67;124771;1098;104178;-74
2022/11/06 08:41:55;;;;;;;24.23;11.87;;;;;;;11.36;66.59;101221.29;124506;1099;104269;-74
2022/11/06 08:44:26;;;;;;;25.97;12.67;;;;;;;11.39;66.69;101217.88;124777;1099;104245;-74
2022/11/06 08:46:57;;;;;;;27.40;14.17;;;;;;;11.39;66.49;101221.42;124780;1099;104329;-74
2022/11/06 08:49:28;;;;;;;26.37;12.50;;;;;;;11.39;66.61;101231.94;124372;1099;104417;-74
2022/11/06 08:52:02;;;;;;;25.10;13.00;;;;;;;11.39;66.54;101229.30;124726;1099;102196;-74
2022/11/06 08:54:32;;;;;;;;;;;;;;;11.38;67.07;101232.75;124711;1099;104236;-74
2022/11/06 08:57:03;;;;;;;26.50;13.27;;;;;;;11.41;66.44;101227.63;124678;1099;102931;-74
2022/11/06 08:59:34;;;;;;;24.57;13.47;;;;;;;11.37;66.74;101224.80;124724;1099;104194;-74
2022/11/06 09:02:06;;;;;;;24.87;13.33;;;;;;;11.32;67.16;101228.11;124651;1099;104210;-75
2022/11/06 09:04:37;;;;;;;27.10;13.03;;;;;;;11.29;66.48;101233.23;124712;1099;104172;-74
2022/11/06 09:07:09;;;;;;;29.33;15.10;;;;;;;11.28;66.75;101231.45;124744;1098;104371;-74
2022/11/06 09:09:40;;;;;;;23.23;12.37;;;;;;;11.25;66.79;101236.58;124744;1099;102815;-74
2022/11/06 09:12:11;;;;;;;28.17;13.33;;;;;;;11.22;66.87;101232.89;124683;1099;104370;-74
2022/11/06 09:14:42;;;;;;;25.70;13.60;;;;;;;11.15;66.86;101234.35;124688;1099;104306;-74
2022/11/06 09:17:14;;;;;;;24.90;13.77;;;;;;;11.01;66.87;101230.21;124720;1099;104223;-74
2022/11/06 09:19:45;;;;;;;25.13;12.50;;;;;;;10.93;66.52;101229.86;124760;1098;104261;-74
2022/11/06 09:22:16;;;;;;;30.97;15.00;;;;;;;10.88;67.01;101229.64;124685;1099;104236;-74
2022/11/06 09:24:48;;;;;;;27.47;14.77;;;;;;;10.86;67.07;101226.06;124707;1099;104354;-74
2022/11/06 09:27:19;;;;;;;26.37;13.23;;;;;;;10.83;67.41;101233.80;124708;1098;104057;-74
2022/11/06 09:29:50;;;;;;;30.30;14.47;;;;;;;10.82;67.56;101228.47;124709;1099;102787;-75
2022/11/06 09:32:22;;;;;;;28.30;13.67;;;;;;;10.82;67.45;101226.73;124749;1099;104166;-74
2022/11/06 09:34:54;;;;;;;28.20;13.23;;;;;;;10.84;67.09;101225.07;124773;1098;102631;-74
2022/11/06 09:37:25;;;;;;;27.47;13.17;;;;;;;10.89;67.47;101241.03;124716;1099;102863;-73
2022/11/06 09:39:56;;;;;;;25.30;12.90;;;;;;;10.88;67.23;101237.52;124763;1098;103075;-74
2022/11/06 09:42:44;;;;;;;25.83;13.37;;;;;;;10.89;67.60;101230.53;124827;1099;102837;-75
2022/11/06 09:45:21;;;;;;;25.50;13.07;;;;;;;10.92;67.48;101241.18;124764;1099;104195;-74
2022/11/06 09:48:11;;;;;;;28.00;14.43;;;;;;;10.92;67.71;101236.84;124673;1099;102981;-74
2022/11/06 09:50:49;;;;;;;24.60;13.33;;;;;;;10.92;67.54;101235.92;124797;1099;104239;-74
2022/11/06 09:53:27;;;;;;;28.17;13.70;;;;;;;10.92;67.60;101234.22;124734;1099;105551;-74
2022/11/06 09:56:00;;;;;;;30.87;14.73;;;;;;;10.91;67.57;101232.41;124734;1099;104223;-74
2022/11/06 09:58:35;;;;;;;29.07;14.70;;;;;;;10.89;67.54;101233.16;124664;1099;102886;-74
2022/11/06 10:01:13;;;;;;;28.43;15.37;;;;;;;10.83;67.70;101235.50;124739;1098;104224;-73
2022/11/06 10:03:51;;;;;;;30.20;15.53;;;;;;;10.77;68.02;101231.77;124450;1099;103445;-74
2022/11/06 10:06:24;;;;;;;28.90;14.87;;;;;;;10.74;68.04;101234.25;124386;1099;104156;-74
2022/11/06 10:08:59;;;;;;;26.70;14.83;;;;;;;10.71;67.74;101234.11;124718;1099;104226;-74
2022/11/06 10:11:54;;;;;;;25.43;14.63;;;;;;;10.68;68.16;101226.09;124359;1099;104153;-74
2022/11/06 10:14:52;;;;;;;27.03;14.63;;;;;;;10.65;68.29;101225.95;124730;1099;104248;-74
2022/11/06 10:17:37;;;;;;;29.20;15.67;;;;;;;10.61;68.62;101230.16;124754;1099;103642;-74
2022/11/06 10:20:17;;;;;;;26.73;15.53;;;;;;;10.58;67.91;101223.84;124737;1099;104412;-73
2022/11/06 10:23:02;;;;;;;28.27;15.20;;;;;;;10.59;68.49;101225.66;124705;1099;104791;-74
2022/11/06 10:25:53;;;;;;;28.57;15.70;;;;;;;10.60;68.26;101219.59;124717;1099;104334;-74
2022/11/06 10:28:41;;;;;;;29.07;15.47;;;;;;;10.60;68.07;101219.59;124764;1099;104277;-75
2022/11/06 10:31:23;;;;;;;27.57;14.77;;;;;;;10.61;68.25;101231.87;124683;1099;104184;-74
2022/11/06 10:33:59;;;;;;;29.60;14.57;;;;;;;10.59;68.27;101218.67;124766;1098;104290;-74
2022/11/06 10:36:36;;;;;;;27.23;15.33;;;;;;;10.58;68.65;101215.97;124720;1099;104248;-74
2022/11/06 10:39:15;;;;;;;26.40;14.87;;;;;;;10.59;68.47;101220.41;124747;1099;104227;-74
2022/11/06 10:41:50;;;;;;;28.17;15.57;;;;;;;10.57;68.84;101219.45;124769;1099;104220;-74
2022/11/06 10:44:29;;;;;;;26.93;14.63;;;;;;;10.58;68.29;101219.52;124798;1099;104163;-74
2022/11/06 10:47:10;;;;;;;33.13;15.33;;;;;;;10.61;68.87;101211.80;124721;1099;104258;-74
2022/11/06 10:49:48;;;;;;;26.90;14.63;;;;;;;10.64;68.66;101208.39;124751;1099;104294;-74
2022/11/06 10:52:32;;;;;;;30.20;14.90;;;;;;;10.65;68.63;101209.31;124707;1099;104166;-75
2022/11/06 10:55:38;;;;;;;29.93;16.13;;;;;;;10.63;68.59;101211.87;124779;1098;104185;-73
2022/11/06 10:58:12;;;;;;;27.50;15.17;;;;;;;10.59;69.00;101210.80;124735;1099;102828;-74
2022/11/06 11:00:43;;;;;;;26.10;14.67;;;;;;;10.57;69.22;101198.45;124803;1099;104169;-74
2022/11/06 11:03:26;;;;;;;28.90;15.30;;;;;;;10.57;69.33;101206.33;124764;1099;102829;-74
2022/11/06 11:05:57;;;;;;;28.77;15.13;;;;;;;10.54;69.29;101198.31;124755;1099;102447;-74
2022/11/06 11:08:40;;;;;;;30.27;15.53;;;;;;;10.55;69.51;101194.84;124682;1099;104230;-74
2022/11/06 11:11:22;;;;;;;28.17;15.13;;;;;;;10.54;69.59;101191.33;124753;1098;104767;-74
2022/11/06 11:14:15;;;;;;;27.93;15.23;;;;;;;10.58;69.52;101197.61;124689;1098;104166;-74
2022/11/06 11:16:47;;;;;;;30.87;16.70;;;;;;;10.56;69.63;101192.28;124478;1099;104133;-74
2022/11/06 11:19:26;;;;;;;30.70;17.00;;;;;;;10.56;69.43;101192.28;124754;1099;104233;-74
2022/11/06 11:21:59;;;;;;;30.33;16.47;;;;;;;10.57;69.58;101190.58;124776;1098;104227;-74
2022/11/06 11:24:30;;;;;;;29.70;16.60;;;;;;;10.57;69.30;101201.08;124786;1099;104211;-74
2022/11/06 11:27:04;;;;;;;32.77;17.00;;;;;;;10.55;69.96;101198.38;124708;1099;104256;-74
2022/11/06 11:29:47;;;;;;;30.47;16.73;;;;;;;10.53;70.44;101196.50;124289;1099;104198;-74
2022/11/06 11:32:20;;;;;;;34.30;18.17;;;;;;;10.52;69.90;101205.22;124728;1099;104217;-74
2022/11/06 11:34:54;;;;;;;33.45;18.02;;;;;;;10.49;70.47;101203.34;124805;1099;102831;-74
2022/11/06 11:37:27;;;;;;;31.25;17.62;;;;;;;10.47;70.17;101202.38;124668;1099;104766;-74
2022/11/06 11:40:35;;;;;;;35.78;18.00;;;;;;;10.46;70.51;101194.44;124782;1098;104217;-74
2022/11/06 11:43:23;;;;;;;35.33;19.37;;;;;;;10.47;70.11;101198.84;124788;1099;104201;-74
2022/11/06 11:46:17;;;;;;;33.73;18.50;;;;;;;10.52;70.50;101203.48;124762;1099;101878;-74